sensor_id;sensor_type;location;lat;lon;timestamp;P1;durP1;ratioP1;P2;durP2;ratioP2
40355;SDS011;26061;50.044;19.930;2023-04-01T00:00:22;20.47;;;11.30;;
40355;SDS011;26061;50.044;19.930;2023-04-01T00:03:09;23.07;;;12.83;;
40355;SDS011;26061;50.044;19.930;2023-04-01T00:05:34;26.37;;;12.87;;
40355;SDS011;26061;50.044;19.930;2023-04-01T00:08:00;25.27;;;14.77;;
40355;SDS011;26061;50.044;19.930;2023-04-01T00:10:26;23.70;;;12.53;;
40355;SDS011;26061;50.044;19.930;2023-04-01T00:12:51;27.77;;;14.10;;
40355;SDS011;26061;50.044;19.930;2023-04-01T00:15:17;26.00;;;13.97;;
40355;SDS011;26061;50.044;19.930;2023-04-01T00:17:43;26.67;;;14.80;;
40355;SDS011;26061;50.044;19.930;2023-04-01T00:20:08;23.13;;;14.37;;
40355;SDS011;26061;50.044;19.930;2023-04-01T00:22:35;19.93;;;12.63;;
40355;SDS011;26061;50.044;19.930;2023-04-01T00:25:00;19.20;;;11.70;;
40355;SDS011;26061;50.044;19.930;2023-04-01T00:27:26;25.67;;;13.50;;
40355;SDS011;26061;50.044;19.930;2023-04-01T00:29:52;23.90;;;12.47;;
40355;SDS011;26061;50.044;19.930;2023-04-01T00:32:17;22.53;;;12.90;;
40355;SDS011;26061;50.044;19.930;2023-04-01T00:34:43;27.90;;;14.77;;
40355;SDS011;26061;50.044;19.930;2023-04-01T00:37:10;24.27;;;13.67;;
40355;SDS011;26061;50.044;19.930;2023-04-01T00:39:36;23.57;;;12.87;;
40355;SDS011;26061;50.044;19.930;2023-04-01T00:42:02;23.70;;;13.20;;
40355;SDS011;26061;50.044;19.930;2023-04-01T00:44:30;26.37;;;13.47;;
40355;SDS011;26061;50.044;19.930;2023-04-01T00:46:58;23.23;;;12.90;;
40355;SDS011;26061;50.044;19.930;2023-04-01T00:49:26;26.23;;;15.03;;
40355;SDS011;26061;50.044;19.930;2023-04-01T00:51:55;33.27;;;16.37;;
40355;SDS011;26061;50.044;19.930;2023-04-01T00:54:24;26.43;;;14.83;;
40355;SDS011;26061;50.044;19.930;2023-04-01T00:56:52;24.17;;;15.50;;
40355;SDS011;26061;50.044;19.930;2023-04-01T00:59:24;25.53;;;14.90;;
40355;SDS011;26061;50.044;19.930;2023-04-01T01:01:53;22.67;;;13.93;;
40355;SDS011;26061;50.044;19.930;2023-04-01T01:04:26;27.10;;;15.07;;
40355;SDS011;26061;50.044;19.930;2023-04-01T01:13:08;23.07;;;13.80;;
40355;SDS011;26061;50.044;19.930;2023-04-01T01:15:35;23.73;;;14.03;;
40355;SDS011;26061;50.044;19.930;2023-04-01T01:26:52;19.13;;;11.23;;
40355;SDS011;26061;50.044;19.930;2023-04-01T01:32:21;13.53;;;9.20;;
40355;SDS011;26061;50.044;19.930;2023-04-01T01:34:55;17.13;;;9.00;;
40355;SDS011;26061;50.044;19.930;2023-04-01T01:37:41;14.33;;;9.10;;
40355;SDS011;26061;50.044;19.930;2023-04-01T01:40:10;14.47;;;8.90;;
40355;SDS011;26061;50.044;19.930;2023-04-01T01:42:38;13.90;;;8.93;;
40355;SDS011;26061;50.044;19.930;2023-04-01T01:45:07;13.20;;;7.70;;
40355;SDS011;26061;50.044;19.930;2023-04-01T01:47:35;11.23;;;7.43;;
40355;SDS011;26061;50.044;19.930;2023-04-01T01:50:02;9.87;;;6.37;;
40355;SDS011;26061;50.044;19.930;2023-04-01T01:52:30;16.30;;;7.50;;
40355;SDS011;26061;50.044;19.930;2023-04-01T01:54:56;14.70;;;8.30;;
40355;SDS011;26061;50.044;19.930;2023-04-01T01:57:23;10.00;;;6.60;;
40355;SDS011;26061;50.044;19.930;2023-04-01T01:59:52;10.57;;;6.67;;
40355;SDS011;26061;50.044;19.930;2023-04-01T02:02:24;11.40;;;6.37;;
40355;SDS011;26061;50.044;19.930;2023-04-01T02:04:51;10.17;;;6.40;;
40355;SDS011;26061;50.044;19.930;2023-04-01T02:07:22;9.33;;;6.27;;
40355;SDS011;26061;50.044;19.930;2023-04-01T02:09:52;11.10;;;6.23;;
40355;SDS011;26061;50.044;19.930;2023-04-01T02:12:18;9.83;;;4.90;;
40355;SDS011;26061;50.044;19.930;2023-04-01T02:17:22;8.93;;;6.30;;
40355;SDS011;26061;50.044;19.930;2023-04-01T02:22:33;9.60;;;5.57;;
40355;SDS011;26061;50.044;19.930;2023-04-01T02:25:03;11.37;;;5.70;;
40355;SDS011;26061;50.044;19.930;2023-04-01T02:27:31;10.27;;;5.80;;
40355;SDS011;26061;50.044;19.930;2023-04-01T02:29:57;9.97;;;6.03;;
40355;SDS011;26061;50.044;19.930;2023-04-01T02:32:23;8.27;;;5.10;;
40355;SDS011;26061;50.044;19.930;2023-04-01T02:34:50;5.87;;;4.50;;
40355;SDS011;26061;50.044;19.930;2023-04-01T02:37:17;9.27;;;5.13;;
40355;SDS011;26061;50.044;19.930;2023-04-01T02:39:43;7.37;;;5.47;;
40355;SDS011;26061;50.044;19.930;2023-04-01T02:42:09;6.77;;;5.27;;
40355;SDS011;26061;50.044;19.930;2023-04-01T02:44:35;8.00;;;4.83;;
40355;SDS011;26061;50.044;19.930;2023-04-01T02:47:01;18.00;;;5.30;;
40355;SDS011;26061;50.044;19.930;2023-04-01T02:49:27;7.00;;;5.17;;
40355;SDS011;26061;50.044;19.930;2023-04-01T02:51:53;8.63;;;5.80;;
40355;SDS011;26061;50.044;19.930;2023-04-01T02:54:19;11.90;;;5.53;;
40355;SDS011;26061;50.044;19.930;2023-04-01T02:56:45;8.07;;;6.17;;
40355;SDS011;26061;50.044;19.930;2023-04-01T02:59:11;7.97;;;5.73;;
40355;SDS011;26061;50.044;19.930;2023-04-01T03:01:37;8.50;;;5.33;;
40355;SDS011;26061;50.044;19.930;2023-04-01T03:04:03;9.30;;;5.40;;
40355;SDS011;26061;50.044;19.930;2023-04-01T03:06:29;9.23;;;6.30;;
40355;SDS011;26061;50.044;19.930;2023-04-01T03:08:55;6.53;;;5.73;;
40355;SDS011;26061;50.044;19.930;2023-04-01T03:11:21;8.60;;;5.90;;
40355;SDS011;26061;50.044;19.930;2023-04-01T03:13:47;11.70;;;6.33;;
40355;SDS011;26061;50.044;19.930;2023-04-01T03:16:14;10.50;;;6.40;;
40355;SDS011;26061;50.044;19.930;2023-04-01T03:18:40;11.37;;;6.93;;
40355;SDS011;26061;50.044;19.930;2023-04-01T03:21:15;8.90;;;6.57;;
40355;SDS011;26061;50.044;19.930;2023-04-01T03:23:42;10.47;;;7.30;;
40355;SDS011;26061;50.044;19.930;2023-04-01T03:26:08;12.17;;;7.70;;
40355;SDS011;26061;50.044;19.930;2023-04-01T03:28:34;11.90;;;7.47;;
40355;SDS011;26061;50.044;19.930;2023-04-01T03:30:59;11.13;;;8.10;;
40355;SDS011;26061;50.044;19.930;2023-04-01T03:33:25;9.17;;;6.80;;
40355;SDS011;26061;50.044;19.930;2023-04-01T03:35:50;12.57;;;6.97;;
40355;SDS011;26061;50.044;19.930;2023-04-01T03:38:17;10.27;;;6.93;;
40355;SDS011;26061;50.044;19.930;2023-04-01T03:40:43;11.07;;;7.43;;
40355;SDS011;26061;50.044;19.930;2023-04-01T03:43:10;10.90;;;6.80;;
40355;SDS011;26061;50.044;19.930;2023-04-01T03:45:36;8.37;;;6.63;;
40355;SDS011;26061;50.044;19.930;2023-04-01T03:48:08;14.73;;;7.33;;
40355;SDS011;26061;50.044;19.930;2023-04-01T03:50:34;8.70;;;6.57;;
40355;SDS011;26061;50.044;19.930;2023-04-01T03:53:00;11.83;;;6.63;;
40355;SDS011;26061;50.044;19.930;2023-04-01T03:55:26;6.97;;;6.10;;
40355;SDS011;26061;50.044;19.930;2023-04-01T03:57:51;7.70;;;6.13;;
40355;SDS011;26061;50.044;19.930;2023-04-01T04:00:17;8.13;;;6.37;;
40355;SDS011;26061;50.044;19.930;2023-04-01T04:02:44;9.93;;;6.97;;
40355;SDS011;26061;50.044;19.930;2023-04-01T04:05:09;11.50;;;7.13;;
40355;SDS011;26061;50.044;19.930;2023-04-01T04:07:36;10.87;;;6.13;;
40355;SDS011;26061;50.044;19.930;2023-04-01T04:10:01;8.93;;;6.93;;
40355;SDS011;26061;50.044;19.930;2023-04-01T04:12:28;8.93;;;6.40;;
40355;SDS011;26061;50.044;19.930;2023-04-01T04:14:53;7.80;;;6.13;;
40355;SDS011;26061;50.044;19.930;2023-04-01T04:17:19;8.57;;;6.00;;
40355;SDS011;26061;50.044;19.930;2023-04-01T04:19:45;8.97;;;7.20;;
40355;SDS011;26061;50.044;19.930;2023-04-01T04:22:11;9.03;;;6.43;;
40355;SDS011;26061;50.044;19.930;2023-04-01T04:24:36;12.23;;;6.83;;
40355;SDS011;26061;50.044;19.930;2023-04-01T04:27:03;10.97;;;7.10;;
40355;SDS011;26061;50.044;19.930;2023-04-01T04:29:29;7.90;;;6.03;;
40355;SDS011;26061;50.044;19.930;2023-04-01T04:31:55;9.00;;;6.33;;
40355;SDS011;26061;50.044;19.930;2023-04-01T04:34:21;11.07;;;7.17;;
40355;SDS011;26061;50.044;19.930;2023-04-01T04:36:47;9.57;;;7.30;;
40355;SDS011;26061;50.044;19.930;2023-04-01T04:39:13;13.33;;;6.90;;
40355;SDS011;26061;50.044;19.930;2023-04-01T04:41:41;10.13;;;7.47;;
40355;SDS011;26061;50.044;19.930;2023-04-01T04:44:07;10.80;;;7.17;;
40355;SDS011;26061;50.044;19.930;2023-04-01T04:46:32;10.40;;;6.93;;
40355;SDS011;26061;50.044;19.930;2023-04-01T04:48:58;15.80;;;8.77;;
40355;SDS011;26061;50.044;19.930;2023-04-01T04:51:24;16.97;;;9.57;;
40355;SDS011;26061;50.044;19.930;2023-04-01T04:53:50;14.80;;;8.20;;
40355;SDS011;26061;50.044;19.930;2023-04-01T04:56:17;14.00;;;8.20;;
40355;SDS011;26061;50.044;19.930;2023-04-01T04:58:45;19.53;;;11.47;;
40355;SDS011;26061;50.044;19.930;2023-04-01T05:01:14;22.10;;;13.00;;
40355;SDS011;26061;50.044;19.930;2023-04-01T05:03:41;24.00;;;13.47;;
40355;SDS011;26061;50.044;19.930;2023-04-01T05:06:07;21.03;;;12.83;;
40355;SDS011;26061;50.044;19.930;2023-04-01T05:08:35;17.70;;;10.47;;
40355;SDS011;26061;50.044;19.930;2023-04-01T05:11:02;16.27;;;11.97;;
40355;SDS011;26061;50.044;19.930;2023-04-01T05:13:28;14.03;;;9.70;;
40355;SDS011;26061;50.044;19.930;2023-04-01T05:15:54;16.03;;;9.40;;
40355;SDS011;26061;50.044;19.930;2023-04-01T05:18:19;10.93;;;8.87;;
40355;SDS011;26061;50.044;19.930;2023-04-01T05:20:47;10.60;;;7.93;;
40355;SDS011;26061;50.044;19.930;2023-04-01T05:23:13;11.43;;;6.97;;
40355;SDS011;26061;50.044;19.930;2023-04-01T05:25:40;12.20;;;8.30;;
40355;SDS011;26061;50.044;19.930;2023-04-01T05:28:05;8.63;;;6.17;;
40355;SDS011;26061;50.044;19.930;2023-04-01T05:30:31;14.30;;;7.13;;
40355;SDS011;26061;50.044;19.930;2023-04-01T05:32:56;13.47;;;7.80;;
40355;SDS011;26061;50.044;19.930;2023-04-01T05:35:23;9.63;;;7.40;;
40355;SDS011;26061;50.044;19.930;2023-04-01T05:37:49;9.90;;;7.27;;
40355;SDS011;26061;50.044;19.930;2023-04-01T05:40:15;11.63;;;6.80;;
40355;SDS011;26061;50.044;19.930;2023-04-01T05:42:42;8.57;;;6.43;;
40355;SDS011;26061;50.044;19.930;2023-04-01T05:45:08;10.33;;;7.17;;
40355;SDS011;26061;50.044;19.930;2023-04-01T05:47:34;8.73;;;5.93;;
40355;SDS011;26061;50.044;19.930;2023-04-01T05:50:00;12.73;;;6.57;;
40355;SDS011;26061;50.044;19.930;2023-04-01T05:52:25;9.87;;;7.50;;
40355;SDS011;26061;50.044;19.930;2023-04-01T05:54:52;9.17;;;7.00;;
40355;SDS011;26061;50.044;19.930;2023-04-01T05:57:18;11.03;;;7.10;;
40355;SDS011;26061;50.044;19.930;2023-04-01T05:59:44;11.80;;;7.27;;
40355;SDS011;26061;50.044;19.930;2023-04-01T06:02:10;11.53;;;6.77;;
40355;SDS011;26061;50.044;19.930;2023-04-01T06:04:39;12.57;;;6.50;;
40355;SDS011;26061;50.044;19.930;2023-04-01T06:07:16;11.67;;;6.73;;
40355;SDS011;26061;50.044;19.930;2023-04-01T06:09:43;8.63;;;6.10;;
40355;SDS011;26061;50.044;19.930;2023-04-01T06:27:09;6.70;;;5.10;;
40355;SDS011;26061;50.044;19.930;2023-04-01T06:34:51;8.00;;;5.40;;
40355;SDS011;26061;50.044;19.930;2023-04-01T06:40:41;8.13;;;5.03;;
40355;SDS011;26061;50.044;19.930;2023-04-01T06:54:28;7.27;;;5.53;;
40355;SDS011;26061;50.044;19.930;2023-04-01T06:57:02;6.32;;;4.63;;
40355;SDS011;26061;50.044;19.930;2023-04-01T06:59:38;7.80;;;5.20;;
40355;SDS011;26061;50.044;19.930;2023-04-01T07:02:06;8.37;;;5.60;;
40355;SDS011;26061;50.044;19.930;2023-04-01T07:04:46;9.03;;;6.23;;
40355;SDS011;26061;50.044;19.930;2023-04-01T07:09:51;7.37;;;5.60;;
40355;SDS011;26061;50.044;19.930;2023-04-01T07:12:27;8.70;;;6.20;;
40355;SDS011;26061;50.044;19.930;2023-04-01T07:15:04;7.78;;;6.18;;
40355;SDS011;26061;50.044;19.930;2023-04-01T07:17:39;11.32;;;6.97;;
40355;SDS011;26061;50.044;19.930;2023-04-01T07:22:56;10.10;;;5.85;;
40355;SDS011;26061;50.044;19.930;2023-04-01T07:25:26;9.03;;;6.10;;
40355;SDS011;26061;50.044;19.930;2023-04-01T07:28:03;11.95;;;6.28;;
40355;SDS011;26061;50.044;19.930;2023-04-01T07:33:52;9.20;;;6.30;;
40355;SDS011;26061;50.044;19.930;2023-04-01T07:39:13;11.80;;;6.87;;
40355;SDS011;26061;50.044;19.930;2023-04-01T07:42:00;9.13;;;6.60;;
40355;SDS011;26061;50.044;19.930;2023-04-01T07:50:28;8.17;;;6.40;;
40355;SDS011;26061;50.044;19.930;2023-04-01T07:56:00;8.97;;;6.70;;
40355;SDS011;26061;50.044;19.930;2023-04-01T08:01:35;6.97;;;5.93;;
40355;SDS011;26061;50.044;19.930;2023-04-01T08:09:19;7.80;;;5.77;;
40355;SDS011;26061;50.044;19.930;2023-04-01T08:17:44;7.00;;;5.33;;
40355;SDS011;26061;50.044;19.930;2023-04-01T08:20:22;8.33;;;6.20;;
40355;SDS011;26061;50.044;19.930;2023-04-01T08:22:57;7.70;;;4.97;;
40355;SDS011;26061;50.044;19.930;2023-04-01T08:25:30;6.87;;;5.03;;
40355;SDS011;26061;50.044;19.930;2023-04-01T08:28:05;6.33;;;4.53;;
40355;SDS011;26061;50.044;19.930;2023-04-01T08:30:40;7.80;;;4.90;;
40355;SDS011;26061;50.044;19.930;2023-04-01T08:33:26;6.72;;;4.55;;
40355;SDS011;26061;50.044;19.930;2023-04-01T08:36:05;5.47;;;4.32;;
40355;SDS011;26061;50.044;19.930;2023-04-01T08:38:46;7.20;;;3.78;;
40355;SDS011;26061;50.044;19.930;2023-04-01T08:41:33;5.75;;;3.97;;
40355;SDS011;26061;50.044;19.930;2023-04-01T08:49:37;6.90;;;4.03;;
40355;SDS011;26061;50.044;19.930;2023-04-01T09:00:38;4.40;;;3.93;;
40355;SDS011;26061;50.044;19.930;2023-04-01T09:09:20;4.93;;;4.10;;
40355;SDS011;26061;50.044;19.930;2023-04-01T09:31:20;5.03;;;3.58;;
40355;SDS011;26061;50.044;19.930;2023-04-01T09:34:15;3.40;;;3.10;;
40355;SDS011;26061;50.044;19.930;2023-04-01T09:51:07;4.70;;;3.17;;
40355;SDS011;26061;50.044;19.930;2023-04-01T09:54:10;6.13;;;3.90;;
40355;SDS011;26061;50.044;19.930;2023-04-01T10:16:09;4.25;;;2.28;;
40355;SDS011;26061;50.044;19.930;2023-04-01T11:08:13;2.80;;;2.33;;
40355;SDS011;26061;50.044;19.930;2023-04-01T11:22:48;3.00;;;1.63;;
40355;SDS011;26061;50.044;19.930;2023-04-01T11:25:28;1.50;;;1.40;;
40355;SDS011;26061;50.044;19.930;2023-04-01T11:37:09;2.10;;;2.00;;
40355;SDS011;26061;50.044;19.930;2023-04-01T11:39:54;3.00;;;2.50;;
40355;SDS011;26061;50.044;19.930;2023-04-01T11:42:53;5.15;;;2.50;;
40355;SDS011;26061;50.044;19.930;2023-04-01T11:45:31;2.50;;;2.30;;
40355;SDS011;26061;50.044;19.930;2023-04-01T11:53:32;2.70;;;2.13;;
40355;SDS011;26061;50.044;19.930;2023-04-01T12:12:14;2.53;;;2.33;;
40355;SDS011;26061;50.044;19.930;2023-04-01T12:14:58;2.72;;;2.53;;
40355;SDS011;26061;50.044;19.930;2023-04-01T12:17:42;4.50;;;2.65;;
40355;SDS011;26061;50.044;19.930;2023-04-01T12:20:24;2.53;;;2.28;;
40355;SDS011;26061;50.044;19.930;2023-04-01T12:34:11;1.77;;;1.60;;
40355;SDS011;26061;50.044;19.930;2023-04-01T12:36:51;2.22;;;1.20;;
40355;SDS011;26061;50.044;19.930;2023-04-01T12:39:43;1.77;;;1.40;;
40355;SDS011;26061;50.044;19.930;2023-04-01T12:51:29;1.25;;;1.20;;
40355;SDS011;26061;50.044;19.930;2023-04-01T13:02:04;1.08;;;0.93;;
40355;SDS011;26061;50.044;19.930;2023-04-01T13:10:06;2.60;;;1.60;;
40355;SDS011;26061;50.044;19.930;2023-04-01T13:12:45;1.23;;;1.00;;
40355;SDS011;26061;50.044;19.930;2023-04-01T13:23:34;1.98;;;1.70;;
40355;SDS011;26061;50.044;19.930;2023-04-01T13:29:13;2.63;;;1.65;;
40355;SDS011;26061;50.044;19.930;2023-04-01T13:43:25;1.80;;;1.52;;
40355;SDS011;26061;50.044;19.930;2023-04-01T13:48:28;2.30;;;1.73;;
40355;SDS011;26061;50.044;19.930;2023-04-01T13:53:39;2.45;;;2.10;;
40355;SDS011;26061;50.044;19.930;2023-04-01T13:57:14;3.40;;;2.00;;
40355;SDS011;26061;50.044;19.930;2023-04-01T13:59:40;4.43;;;1.75;;
40355;SDS011;26061;50.044;19.930;2023-04-01T14:12:46;2.38;;;1.77;;
40355;SDS011;26061;50.044;19.930;2023-04-01T14:21:11;2.10;;;1.85;;
40355;SDS011;26061;50.044;19.930;2023-04-01T14:37:42;2.88;;;1.88;;
40355;SDS011;26061;50.044;19.930;2023-04-01T14:51:46;4.97;;;2.30;;
40355;SDS011;26061;50.044;19.930;2023-04-01T14:54:17;3.13;;;2.47;;
40355;SDS011;26061;50.044;19.930;2023-04-01T15:14:28;4.00;;;3.58;;
40355;SDS011;26061;50.044;19.930;2023-04-01T15:17:21;6.15;;;3.08;;
40355;SDS011;26061;50.044;19.930;2023-04-01T15:26:07;3.90;;;2.60;;
40355;SDS011;26061;50.044;19.930;2023-04-01T15:37:16;4.82;;;3.30;;
40355;SDS011;26061;50.044;19.930;2023-04-01T15:39:57;2.78;;;2.40;;
40355;SDS011;26061;50.044;19.930;2023-04-01T15:42:39;2.78;;;2.58;;
40355;SDS011;26061;50.044;19.930;2023-04-01T16:05:06;3.95;;;3.15;;
40355;SDS011;26061;50.044;19.930;2023-04-01T16:10:59;4.60;;;3.63;;
40355;SDS011;26061;50.044;19.930;2023-04-01T16:24:38;6.45;;;3.60;;
40355;SDS011;26061;50.044;19.930;2023-04-01T16:33:04;6.25;;;4.53;;
40355;SDS011;26061;50.044;19.930;2023-04-01T16:51:31;4.65;;;3.88;;
40355;SDS011;26061;50.044;19.930;2023-04-01T16:56:50;8.63;;;6.05;;
40355;SDS011;26061;50.044;19.930;2023-04-01T17:07:43;9.52;;;6.65;;
40355;SDS011;26061;50.044;19.930;2023-04-01T17:15:35;13.43;;;9.30;;
40355;SDS011;26061;50.044;19.930;2023-04-01T17:18:10;12.73;;;8.38;;
40355;SDS011;26061;50.044;19.930;2023-04-01T17:45:55;9.05;;;6.50;;
40355;SDS011;26061;50.044;19.930;2023-04-01T17:57:14;13.43;;;10.15;;
40355;SDS011;26061;50.044;19.930;2023-04-01T18:00:00;17.02;;;9.63;;
40355;SDS011;26061;50.044;19.930;2023-04-01T18:03:12;13.60;;;8.30;;
40355;SDS011;26061;50.044;19.930;2023-04-01T18:05:37;13.88;;;8.50;;
40355;SDS011;26061;50.044;19.930;2023-04-01T18:08:13;13.30;;;9.00;;
40355;SDS011;26061;50.044;19.930;2023-04-01T18:19:22;21.05;;;11.73;;
40355;SDS011;26061;50.044;19.930;2023-04-01T18:24:46;18.30;;;11.27;;
40355;SDS011;26061;50.044;19.930;2023-04-01T18:29:58;20.50;;;11.73;;
40355;SDS011;26061;50.044;19.930;2023-04-01T18:32:37;22.60;;;14.18;;
40355;SDS011;26061;50.044;19.930;2023-04-01T18:35:19;27.17;;;15.23;;
40355;SDS011;26061;50.044;19.930;2023-04-01T18:38:39;26.95;;;15.48;;
40355;SDS011;26061;50.044;19.930;2023-04-01T18:46:57;29.00;;;17.02;;
40355;SDS011;26061;50.044;19.930;2023-04-01T18:49:48;32.75;;;19.23;;
40355;SDS011;26061;50.044;19.930;2023-04-01T18:55:42;38.30;;;20.55;;
40355;SDS011;26061;50.044;19.930;2023-04-01T18:58:25;32.95;;;19.63;;
40355;SDS011;26061;50.044;19.930;2023-04-01T19:03:43;36.23;;;22.13;;
40355;SDS011;26061;50.044;19.930;2023-04-01T19:06:30;43.97;;;25.93;;
40355;SDS011;26061;50.044;19.930;2023-04-01T19:09:11;35.38;;;21.17;;
40355;SDS011;26061;50.044;19.930;2023-04-01T19:11:45;33.20;;;20.17;;
40355;SDS011;26061;50.044;19.930;2023-04-01T19:14:43;30.65;;;18.88;;
40355;SDS011;26061;50.044;19.930;2023-04-01T19:17:25;30.42;;;18.58;;
40355;SDS011;26061;50.044;19.930;2023-04-01T19:23:07;33.70;;;18.10;;
40355;SDS011;26061;50.044;19.930;2023-04-01T19:25:38;34.40;;;18.70;;
40355;SDS011;26061;50.044;19.930;2023-04-01T19:36:56;33.83;;;18.33;;
40355;SDS011;26061;50.044;19.930;2023-04-01T19:39:36;31.00;;;16.23;;
40355;SDS011;26061;50.044;19.930;2023-04-01T19:45:33;35.25;;;17.50;;
40355;SDS011;26061;50.044;19.930;2023-04-01T19:50:59;61.17;;;24.15;;
40355;SDS011;26061;50.044;19.930;2023-04-01T19:53:54;64.45;;;29.15;;
40355;SDS011;26061;50.044;19.930;2023-04-01T19:56:22;55.00;;;27.97;;
40355;SDS011;26061;50.044;19.930;2023-04-01T19:58:55;47.97;;;25.05;;
40355;SDS011;26061;50.044;19.930;2023-04-01T20:04:14;40.13;;;21.93;;
40355;SDS011;26061;50.044;19.930;2023-04-01T20:07:04;47.75;;;23.35;;
40355;SDS011;26061;50.044;19.930;2023-04-01T20:09:40;48.40;;;25.57;;
40355;SDS011;26061;50.044;19.930;2023-04-01T20:12:15;53.53;;;26.70;;
40355;SDS011;26061;50.044;19.930;2023-04-01T20:17:46;46.58;;;25.27;;
40355;SDS011;26061;50.044;19.930;2023-04-01T20:20:21;47.25;;;24.27;;
40355;SDS011;26061;50.044;19.930;2023-04-01T20:25:38;52.70;;;26.30;;
40355;SDS011;26061;50.044;19.930;2023-04-01T20:28:14;51.23;;;27.23;;
40355;SDS011;26061;50.044;19.930;2023-04-01T20:41:12;65.13;;;30.95;;
40355;SDS011;26061;50.044;19.930;2023-04-01T20:52:32;45.20;;;24.67;;
40355;SDS011;26061;50.044;19.930;2023-04-01T21:05:56;48.90;;;23.93;;
40355;SDS011;26061;50.044;19.930;2023-04-01T21:08:48;40.20;;;21.07;;
40355;SDS011;26061;50.044;19.930;2023-04-01T21:16:35;49.73;;;26.13;;
40355;SDS011;26061;50.044;19.930;2023-04-01T21:24:49;40.10;;;23.57;;
40355;SDS011;26061;50.044;19.930;2023-04-01T21:36:33;36.63;;;20.40;;
40355;SDS011;26061;50.044;19.930;2023-04-01T21:42:03;42.13;;;21.63;;
40355;SDS011;26061;50.044;19.930;2023-04-01T22:04:32;39.60;;;21.37;;
40355;SDS011;26061;50.044;19.930;2023-04-01T22:09:46;45.03;;;24.40;;
40355;SDS011;26061;50.044;19.930;2023-04-01T22:17:35;36.93;;;21.03;;
40355;SDS011;26061;50.044;19.930;2023-04-01T22:23:03;38.83;;;19.97;;
40355;SDS011;26061;50.044;19.930;2023-04-01T22:25:49;39.50;;;20.60;;
40355;SDS011;26061;50.044;19.930;2023-04-01T22:30:59;39.37;;;21.20;;
40355;SDS011;26061;50.044;19.930;2023-04-01T22:33:48;42.83;;;20.63;;
40355;SDS011;26061;50.044;19.930;2023-04-01T22:47:45;57.53;;;29.07;;
40355;SDS011;26061;50.044;19.930;2023-04-01T22:55:59;102.23;;;48.27;;
40355;SDS011;26061;50.044;19.930;2023-04-01T22:58:39;76.67;;;37.33;;
40355;SDS011;26061;50.044;19.930;2023-04-01T23:01:14;71.97;;;37.33;;
40355;SDS011;26061;50.044;19.930;2023-04-01T23:03:46;72.03;;;38.27;;
40355;SDS011;26061;50.044;19.930;2023-04-01T23:06:16;57.20;;;31.57;;
40355;SDS011;26061;50.044;19.930;2023-04-01T23:14:39;50.37;;;25.30;;
40355;SDS011;26061;50.044;19.930;2023-04-01T23:19:54;49.03;;;24.00;;
40355;SDS011;26061;50.044;19.930;2023-04-01T23:23:02;43.20;;;22.00;;
40355;SDS011;26061;50.044;19.930;2023-04-01T23:31:25;45.13;;;24.30;;
40355;SDS011;26061;50.044;19.930;2023-04-01T23:36:41;48.57;;;23.27;;
40355;SDS011;26061;50.044;19.930;2023-04-01T23:42:07;58.83;;;26.67;;
40355;SDS011;26061;50.044;19.930;2023-04-01T23:44:41;49.67;;;23.93;;
40355;SDS011;26061;50.044;19.930;2023-04-01T23:47:13;45.80;;;21.83;;
40355;SDS011;26061;50.044;19.930;2023-04-01T23:49:46;40.33;;;21.10;;
40355;SDS011;26061;50.044;19.930;2023-04-01T23:52:20;41.67;;;20.60;;
40355;SDS011;26061;50.044;19.930;2023-04-01T23:54:49;39.10;;;19.87;;
40355;SDS011;26061;50.044;19.930;2023-04-01T23:57:22;37.67;;;18.70;;
